sensor_id;sensor_type;location;lat;lon;timestamp;temperature;humidity
15617;DHT22;7908;51.688;7.130;2023-01-26T00:01:56;-0.70;99.90
15617;DHT22;7908;51.688;7.130;2023-01-26T00:04:25;-0.70;99.90
15617;DHT22;7908;51.688;7.130;2023-01-26T00:06:54;-0.70;99.90
15617;DHT22;7908;51.688;7.130;2023-01-26T00:09:22;-0.70;99.90
15617;DHT22;7908;51.688;7.130;2023-01-26T00:11:51;-0.70;99.90
15617;DHT22;7908;51.688;7.130;2023-01-26T00:14:20;-0.70;99.90
15617;DHT22;7908;51.688;7.130;2023-01-26T00:16:50;-0.80;99.90
15617;DHT22;7908;51.688;7.130;2023-01-26T00:19:19;-0.80;99.90
15617;DHT22;7908;51.688;7.130;2023-01-26T00:21:52;-0.90;99.90
15617;DHT22;7908;51.688;7.130;2023-01-26T00:24:20;-0.90;99.90
15617;DHT22;7908;51.688;7.130;2023-01-26T00:26:49;-0.90;99.90
15617;DHT22;7908;51.688;7.130;2023-01-26T00:29:18;-0.90;99.90
15617;DHT22;7908;51.688;7.130;2023-01-26T00:31:47;-0.90;99.90
15617;DHT22;7908;51.688;7.130;2023-01-26T00:34:17;-0.80;99.90
15617;DHT22;7908;51.688;7.130;2023-01-26T00:36:45;-0.80;99.90
15617;DHT22;7908;51.688;7.130;2023-01-26T00:39:14;-0.70;99.90
15617;DHT22;7908;51.688;7.130;2023-01-26T00:41:43;-0.70;99.90
15617;DHT22;7908;51.688;7.130;2023-01-26T00:44:29;-0.70;99.90
15617;DHT22;7908;51.688;7.130;2023-01-26T00:46:57;-0.70;99.90
15617;DHT22;7908;51.688;7.130;2023-01-26T00:49:27;-0.70;99.90
15617;DHT22;7908;51.688;7.130;2023-01-26T00:51:56;-0.70;99.90
15617;DHT22;7908;51.688;7.130;2023-01-26T00:54:25;-0.70;99.90
15617;DHT22;7908;51.688;7.130;2023-01-26T00:56:54;-0.70;99.90
15617;DHT22;7908;51.688;7.130;2023-01-26T00:59:23;-0.60;99.90
15617;DHT22;7908;51.688;7.130;2023-01-26T01:01:52;-0.60;99.90
15617;DHT22;7908;51.688;7.130;2023-01-26T01:04:21;-0.60;99.90
15617;DHT22;7908;51.688;7.130;2023-01-26T01:06:51;-0.60;99.90
15617;DHT22;7908;51.688;7.130;2023-01-26T01:09:19;-0.60;99.90
15617;DHT22;7908;51.688;7.130;2023-01-26T01:11:48;-0.50;99.90
15617;DHT22;7908;51.688;7.130;2023-01-26T01:14:17;-0.60;99.90
15617;DHT22;7908;51.688;7.130;2023-01-26T01:16:45;-0.50;99.90
15617;DHT22;7908;51.688;7.130;2023-01-26T01:19:14;-0.50;99.90
15617;DHT22;7908;51.688;7.130;2023-01-26T01:21:44;-0.50;99.90
15617;DHT22;7908;51.688;7.130;2023-01-26T01:24:14;-0.50;99.90
15617;DHT22;7908;51.688;7.130;2023-01-26T01:26:42;-0.50;99.90
15617;DHT22;7908;51.688;7.130;2023-01-26T01:29:12;-0.50;99.90
15617;DHT22;7908;51.688;7.130;2023-01-26T01:31:41;-0.50;99.90
15617;DHT22;7908;51.688;7.130;2023-01-26T01:34:10;-0.50;99.90
15617;DHT22;7908;51.688;7.130;2023-01-26T01:36:39;-0.50;99.90
15617;DHT22;7908;51.688;7.130;2023-01-26T01:39:07;-0.50;99.90
15617;DHT22;7908;51.688;7.130;2023-01-26T01:41:37;-0.50;99.90
15617;DHT22;7908;51.688;7.130;2023-01-26T01:44:17;-0.50;99.90
15617;DHT22;7908;51.688;7.130;2023-01-26T01:46:49;-0.40;99.90
15617;DHT22;7908;51.688;7.130;2023-01-26T01:49:23;-0.40;99.90
15617;DHT22;7908;51.688;7.130;2023-01-26T01:51:56;-0.40;99.90
15617;DHT22;7908;51.688;7.130;2023-01-26T01:54:30;-0.40;99.90
15617;DHT22;7908;51.688;7.130;2023-01-26T01:57:03;-0.40;99.90
15617;DHT22;7908;51.688;7.130;2023-01-26T01:59:43;-0.40;99.90
15617;DHT22;7908;51.688;7.130;2023-01-26T02:02:14;-0.40;99.90
15617;DHT22;7908;51.688;7.130;2023-01-26T02:04:43;-0.40;99.90
15617;DHT22;7908;51.688;7.130;2023-01-26T02:07:12;-0.40;99.90
15617;DHT22;7908;51.688;7.130;2023-01-26T02:09:42;-0.30;99.90
15617;DHT22;7908;51.688;7.130;2023-01-26T02:12:45;-0.30;99.90
15617;DHT22;7908;51.688;7.130;2023-01-26T02:15:14;-0.30;99.90
15617;DHT22;7908;51.688;7.130;2023-01-26T02:17:43;-0.30;99.90
15617;DHT22;7908;51.688;7.130;2023-01-26T02:20:18;-0.30;99.90
15617;DHT22;7908;51.688;7.130;2023-01-26T02:22:54;-0.30;99.90
15617;DHT22;7908;51.688;7.130;2023-01-26T02:25:32;-0.30;99.90
15617;DHT22;7908;51.688;7.130;2023-01-26T02:28:04;-0.30;99.90
15617;DHT22;7908;51.688;7.130;2023-01-26T02:30:33;-0.20;99.90
15617;DHT22;7908;51.688;7.130;2023-01-26T02:33:01;-0.20;99.90
15617;DHT22;7908;51.688;7.130;2023-01-26T02:35:30;-0.30;99.90
15617;DHT22;7908;51.688;7.130;2023-01-26T02:37:58;-0.20;99.90
15617;DHT22;7908;51.688;7.130;2023-01-26T02:40:35;-0.30;99.90
15617;DHT22;7908;51.688;7.130;2023-01-26T02:43:07;-0.20;99.90
15617;DHT22;7908;51.688;7.130;2023-01-26T02:45:34;-0.30;99.90
15617;DHT22;7908;51.688;7.130;2023-01-26T02:48:03;-0.30;99.90
15617;DHT22;7908;51.688;7.130;2023-01-26T02:50:34;-0.30;99.90
15617;DHT22;7908;51.688;7.130;2023-01-26T02:53:02;-0.30;99.90
15617;DHT22;7908;51.688;7.130;2023-01-26T02:55:31;-0.30;99.90
15617;DHT22;7908;51.688;7.130;2023-01-26T02:58:00;-0.30;99.90
15617;DHT22;7908;51.688;7.130;2023-01-26T03:00:31;-0.30;99.90
15617;DHT22;7908;51.688;7.130;2023-01-26T03:03:09;-0.30;99.90
15617;DHT22;7908;51.688;7.130;2023-01-26T03:05:39;-0.20;99.90
15617;DHT22;7908;51.688;7.130;2023-01-26T03:08:07;-0.20;99.90
15617;DHT22;7908;51.688;7.130;2023-01-26T03:10:36;-0.20;99.90
15617;DHT22;7908;51.688;7.130;2023-01-26T03:13:05;-0.20;99.90
15617;DHT22;7908;51.688;7.130;2023-01-26T03:15:35;-0.20;99.90
15617;DHT22;7908;51.688;7.130;2023-01-26T03:18:19;-0.30;99.90
15617;DHT22;7908;51.688;7.130;2023-01-26T03:21:09;-0.30;99.90
15617;DHT22;7908;51.688;7.130;2023-01-26T03:23:56;-0.20;99.90
15617;DHT22;7908;51.688;7.130;2023-01-26T03:26:46;-0.20;99.90
15617;DHT22;7908;51.688;7.130;2023-01-26T03:29:32;-0.20;99.90
15617;DHT22;7908;51.688;7.130;2023-01-26T03:32:03;-0.20;99.90
15617;DHT22;7908;51.688;7.130;2023-01-26T03:34:32;-0.20;99.90
15617;DHT22;7908;51.688;7.130;2023-01-26T03:37:00;-0.30;99.90
15617;DHT22;7908;51.688;7.130;2023-01-26T03:39:29;-0.30;99.90
15617;DHT22;7908;51.688;7.130;2023-01-26T03:42:15;-0.30;99.90
15617;DHT22;7908;51.688;7.130;2023-01-26T03:45:02;-0.30;99.90
15617;DHT22;7908;51.688;7.130;2023-01-26T03:47:50;-0.30;99.90
15617;DHT22;7908;51.688;7.130;2023-01-26T03:50:36;-0.20;99.90
15617;DHT22;7908;51.688;7.130;2023-01-26T03:53:23;-0.20;99.90
15617;DHT22;7908;51.688;7.130;2023-01-26T03:56:09;-0.30;99.90
15617;DHT22;7908;51.688;7.130;2023-01-26T03:58:50;-0.30;99.90
15617;DHT22;7908;51.688;7.130;2023-01-26T04:01:20;-0.20;99.90
15617;DHT22;7908;51.688;7.130;2023-01-26T04:03:55;-0.30;99.90
15617;DHT22;7908;51.688;7.130;2023-01-26T04:06:42;-0.20;99.90
15617;DHT22;7908;51.688;7.130;2023-01-26T04:09:28;-0.30;99.90
15617;DHT22;7908;51.688;7.130;2023-01-26T04:11:57;-0.30;99.90
15617;DHT22;7908;51.688;7.130;2023-01-26T04:14:27;-0.20;99.90
15617;DHT22;7908;51.688;7.130;2023-01-26T04:17:16;-0.20;99.90
15617;DHT22;7908;51.688;7.130;2023-01-26T04:20:06;-0.20;99.90
15617;DHT22;7908;51.688;7.130;2023-01-26T04:22:52;-0.20;99.90
15617;DHT22;7908;51.688;7.130;2023-01-26T04:25:21;-0.10;99.90
15617;DHT22;7908;51.688;7.130;2023-01-26T04:27:52;-0.10;99.90
15617;DHT22;7908;51.688;7.130;2023-01-26T04:30:21;-0.10;99.90
15617;DHT22;7908;51.688;7.130;2023-01-26T04:32:50;-0.20;99.90
15617;DHT22;7908;51.688;7.130;2023-01-26T04:35:20;-0.20;99.90
15617;DHT22;7908;51.688;7.130;2023-01-26T04:37:49;-0.30;99.90
15617;DHT22;7908;51.688;7.130;2023-01-26T04:40:18;-0.20;99.90
15617;DHT22;7908;51.688;7.130;2023-01-26T04:42:46;-0.30;99.90
15617;DHT22;7908;51.688;7.130;2023-01-26T04:45:15;-0.30;99.90
15617;DHT22;7908;51.688;7.130;2023-01-26T04:47:44;-0.30;99.90
15617;DHT22;7908;51.688;7.130;2023-01-26T04:50:12;-0.30;99.90
15617;DHT22;7908;51.688;7.130;2023-01-26T04:52:42;-0.30;99.90
15617;DHT22;7908;51.688;7.130;2023-01-26T04:55:11;-0.30;99.90
15617;DHT22;7908;51.688;7.130;2023-01-26T04:57:39;-0.30;99.90
15617;DHT22;7908;51.688;7.130;2023-01-26T05:00:09;-0.20;99.90
15617;DHT22;7908;51.688;7.130;2023-01-26T05:02:38;-0.20;99.90
15617;DHT22;7908;51.688;7.130;2023-01-26T05:05:08;-0.20;99.90
15617;DHT22;7908;51.688;7.130;2023-01-26T05:07:37;-0.20;99.90
15617;DHT22;7908;51.688;7.130;2023-01-26T05:10:08;-0.20;99.90
15617;DHT22;7908;51.688;7.130;2023-01-26T05:12:40;-0.20;99.90
15617;DHT22;7908;51.688;7.130;2023-01-26T05:15:09;-0.20;99.90
15617;DHT22;7908;51.688;7.130;2023-01-26T05:17:37;-0.20;99.90
15617;DHT22;7908;51.688;7.130;2023-01-26T05:20:07;-0.20;99.90
15617;DHT22;7908;51.688;7.130;2023-01-26T05:22:36;-0.20;99.90
15617;DHT22;7908;51.688;7.130;2023-01-26T05:25:07;-0.20;99.90
15617;DHT22;7908;51.688;7.130;2023-01-26T05:27:36;-0.20;99.90
15617;DHT22;7908;51.688;7.130;2023-01-26T05:30:05;-0.20;99.90
15617;DHT22;7908;51.688;7.130;2023-01-26T05:32:34;-0.20;99.90
15617;DHT22;7908;51.688;7.130;2023-01-26T05:35:04;-0.20;99.90
15617;DHT22;7908;51.688;7.130;2023-01-26T05:37:33;-0.30;99.90
15617;DHT22;7908;51.688;7.130;2023-01-26T05:40:01;-0.30;99.90
15617;DHT22;7908;51.688;7.130;2023-01-26T05:42:32;-0.30;99.90
15617;DHT22;7908;51.688;7.130;2023-01-26T05:45:01;-0.30;99.90
15617;DHT22;7908;51.688;7.130;2023-01-26T05:47:29;-0.30;99.90
15617;DHT22;7908;51.688;7.130;2023-01-26T05:49:58;-0.30;99.90
15617;DHT22;7908;51.688;7.130;2023-01-26T05:52:26;-0.30;99.90
15617;DHT22;7908;51.688;7.130;2023-01-26T05:54:55;-0.20;99.90
15617;DHT22;7908;51.688;7.130;2023-01-26T05:57:24;-0.20;99.90
15617;DHT22;7908;51.688;7.130;2023-01-26T05:59:54;-0.20;99.90
15617;DHT22;7908;51.688;7.130;2023-01-26T06:02:23;-0.20;99.90
15617;DHT22;7908;51.688;7.130;2023-01-26T06:04:53;-0.20;99.90
15617;DHT22;7908;51.688;7.130;2023-01-26T06:07:22;-0.20;99.90
15617;DHT22;7908;51.688;7.130;2023-01-26T06:09:52;-0.20;99.90
15617;DHT22;7908;51.688;7.130;2023-01-26T06:12:21;-0.10;99.90
15617;DHT22;7908;51.688;7.130;2023-01-26T06:14:50;-0.10;99.90
15617;DHT22;7908;51.688;7.130;2023-01-26T06:17:20;0.00;99.90
15617;DHT22;7908;51.688;7.130;2023-01-26T06:19:49;0.00;99.90
15617;DHT22;7908;51.688;7.130;2023-01-26T06:22:18;-0.10;99.90
15617;DHT22;7908;51.688;7.130;2023-01-26T06:24:47;-0.10;99.90
15617;DHT22;7908;51.688;7.130;2023-01-26T06:27:16;-0.10;99.90
15617;DHT22;7908;51.688;7.130;2023-01-26T06:29:45;-0.20;99.90
15617;DHT22;7908;51.688;7.130;2023-01-26T06:32:14;-0.20;99.90
15617;DHT22;7908;51.688;7.130;2023-01-26T06:34:44;-0.20;99.90
15617;DHT22;7908;51.688;7.130;2023-01-26T06:37:13;-0.20;99.90
15617;DHT22;7908;51.688;7.130;2023-01-26T06:39:42;-0.20;99.90
15617;DHT22;7908;51.688;7.130;2023-01-26T06:42:11;-0.10;99.90
15617;DHT22;7908;51.688;7.130;2023-01-26T06:44:41;-0.10;99.90
15617;DHT22;7908;51.688;7.130;2023-01-26T06:47:09;-0.10;99.90
15617;DHT22;7908;51.688;7.130;2023-01-26T06:49:39;-0.10;99.90
15617;DHT22;7908;51.688;7.130;2023-01-26T06:52:21;-0.10;99.90
15617;DHT22;7908;51.688;7.130;2023-01-26T06:54:53;-0.10;99.90
15617;DHT22;7908;51.688;7.130;2023-01-26T06:57:22;-0.10;99.90
15617;DHT22;7908;51.688;7.130;2023-01-26T06:59:51;0.00;99.90
15617;DHT22;7908;51.688;7.130;2023-01-26T07:02:21;0.00;99.90
15617;DHT22;7908;51.688;7.130;2023-01-26T07:04:50;0.00;99.90
15617;DHT22;7908;51.688;7.130;2023-01-26T07:07:20;0.00;99.90
15617;DHT22;7908;51.688;7.130;2023-01-26T07:09:49;0.10;99.90
15617;DHT22;7908;51.688;7.130;2023-01-26T07:12:17;0.10;99.90
15617;DHT22;7908;51.688;7.130;2023-01-26T07:14:46;0.20;99.90
15617;DHT22;7908;51.688;7.130;2023-01-26T07:17:17;0.20;99.90
15617;DHT22;7908;51.688;7.130;2023-01-26T07:19:45;0.20;99.90
15617;DHT22;7908;51.688;7.130;2023-01-26T07:22:14;0.20;99.90
15617;DHT22;7908;51.688;7.130;2023-01-26T07:24:44;0.10;99.90
15617;DHT22;7908;51.688;7.130;2023-01-26T07:27:13;0.10;99.90
15617;DHT22;7908;51.688;7.130;2023-01-26T07:29:42;0.10;99.90
15617;DHT22;7908;51.688;7.130;2023-01-26T07:32:12;0.10;99.90
15617;DHT22;7908;51.688;7.130;2023-01-26T07:34:40;0.10;99.90
15617;DHT22;7908;51.688;7.130;2023-01-26T07:37:09;0.10;99.90
15617;DHT22;7908;51.688;7.130;2023-01-26T07:39:38;0.10;99.90
15617;DHT22;7908;51.688;7.130;2023-01-26T07:42:08;0.10;99.90
15617;DHT22;7908;51.688;7.130;2023-01-26T07:44:37;0.10;99.90
15617;DHT22;7908;51.688;7.130;2023-01-26T07:47:11;0.10;99.90
15617;DHT22;7908;51.688;7.130;2023-01-26T07:49:41;0.20;99.90
15617;DHT22;7908;51.688;7.130;2023-01-26T07:52:09;0.10;99.90
15617;DHT22;7908;51.688;7.130;2023-01-26T07:54:38;0.10;99.90
15617;DHT22;7908;51.688;7.130;2023-01-26T07:57:08;0.20;99.90
15617;DHT22;7908;51.688;7.130;2023-01-26T07:59:37;0.10;99.90
15617;DHT22;7908;51.688;7.130;2023-01-26T08:02:07;0.10;99.90
15617;DHT22;7908;51.688;7.130;2023-01-26T08:04:38;0.20;99.90
15617;DHT22;7908;51.688;7.130;2023-01-26T08:07:07;0.20;99.90
15617;DHT22;7908;51.688;7.130;2023-01-26T08:09:36;0.20;99.90
15617;DHT22;7908;51.688;7.130;2023-01-26T08:12:05;0.30;99.90
15617;DHT22;7908;51.688;7.130;2023-01-26T08:14:35;0.30;99.90
15617;DHT22;7908;51.688;7.130;2023-01-26T08:17:13;0.20;99.90
15617;DHT22;7908;51.688;7.130;2023-01-26T08:19:43;0.30;99.90
15617;DHT22;7908;51.688;7.130;2023-01-26T08:22:13;0.30;99.90
15617;DHT22;7908;51.688;7.130;2023-01-26T08:24:41;0.30;99.90
15617;DHT22;7908;51.688;7.130;2023-01-26T08:27:10;0.30;99.90
15617;DHT22;7908;51.688;7.130;2023-01-26T08:29:40;0.30;99.90
15617;DHT22;7908;51.688;7.130;2023-01-26T08:32:08;0.30;99.90
15617;DHT22;7908;51.688;7.130;2023-01-26T08:34:37;0.30;99.90
15617;DHT22;7908;51.688;7.130;2023-01-26T08:37:06;0.30;99.90
15617;DHT22;7908;51.688;7.130;2023-01-26T08:39:35;0.30;99.90
15617;DHT22;7908;51.688;7.130;2023-01-26T08:42:04;0.40;99.90
15617;DHT22;7908;51.688;7.130;2023-01-26T08:44:33;0.30;99.90
15617;DHT22;7908;51.688;7.130;2023-01-26T08:47:03;0.40;99.90
15617;DHT22;7908;51.688;7.130;2023-01-26T08:49:32;0.40;99.90
15617;DHT22;7908;51.688;7.130;2023-01-26T08:52:01;0.40;99.90
15617;DHT22;7908;51.688;7.130;2023-01-26T08:54:29;0.40;99.90
15617;DHT22;7908;51.688;7.130;2023-01-26T08:56:58;0.40;99.90
15617;DHT22;7908;51.688;7.130;2023-01-26T08:59:27;0.40;99.90
15617;DHT22;7908;51.688;7.130;2023-01-26T09:01:55;0.50;99.90
15617;DHT22;7908;51.688;7.130;2023-01-26T09:04:26;0.50;99.90
15617;DHT22;7908;51.688;7.130;2023-01-26T09:06:54;0.50;99.90
15617;DHT22;7908;51.688;7.130;2023-01-26T09:09:23;0.50;99.90
15617;DHT22;7908;51.688;7.130;2023-01-26T09:11:54;0.50;99.90
15617;DHT22;7908;51.688;7.130;2023-01-26T09:14:23;0.50;99.90
15617;DHT22;7908;51.688;7.130;2023-01-26T09:16:51;0.60;99.90
15617;DHT22;7908;51.688;7.130;2023-01-26T09:19:20;0.60;99.90
15617;DHT22;7908;51.688;7.130;2023-01-26T09:21:53;0.60;99.90
15617;DHT22;7908;51.688;7.130;2023-01-26T09:24:22;0.70;99.90
15617;DHT22;7908;51.688;7.130;2023-01-26T09:26:51;0.60;99.90
15617;DHT22;7908;51.688;7.130;2023-01-26T09:29:20;0.60;99.90
15617;DHT22;7908;51.688;7.130;2023-01-26T09:31:48;0.60;99.90
15617;DHT22;7908;51.688;7.130;2023-01-26T09:34:20;0.60;99.90
15617;DHT22;7908;51.688;7.130;2023-01-26T09:36:52;0.70;99.90
15617;DHT22;7908;51.688;7.130;2023-01-26T09:39:21;0.70;99.90
15617;DHT22;7908;51.688;7.130;2023-01-26T09:41:58;0.70;99.90
15617;DHT22;7908;51.688;7.130;2023-01-26T09:44:32;0.70;99.90
15617;DHT22;7908;51.688;7.130;2023-01-26T09:47:04;0.70;99.90
15617;DHT22;7908;51.688;7.130;2023-01-26T09:49:44;0.70;99.90
15617;DHT22;7908;51.688;7.130;2023-01-26T09:52:21;0.70;99.90
15617;DHT22;7908;51.688;7.130;2023-01-26T09:54:57;0.80;99.90
15617;DHT22;7908;51.688;7.130;2023-01-26T09:57:31;0.80;99.90
15617;DHT22;7908;51.688;7.130;2023-01-26T10:00:06;0.80;99.90
15617;DHT22;7908;51.688;7.130;2023-01-26T10:02:51;0.90;99.90
15617;DHT22;7908;51.688;7.130;2023-01-26T10:05:27;1.00;99.90
15617;DHT22;7908;51.688;7.130;2023-01-26T10:08:01;1.00;99.90
15617;DHT22;7908;51.688;7.130;2023-01-26T10:10:34;1.00;99.90
15617;DHT22;7908;51.688;7.130;2023-01-26T10:13:05;1.10;99.90
15617;DHT22;7908;51.688;7.130;2023-01-26T10:15:36;1.10;99.90
15617;DHT22;7908;51.688;7.130;2023-01-26T10:18:12;1.10;99.90
15617;DHT22;7908;51.688;7.130;2023-01-26T10:20:48;1.10;99.90
15617;DHT22;7908;51.688;7.130;2023-01-26T10:23:22;1.10;99.90
15617;DHT22;7908;51.688;7.130;2023-01-26T10:25:53;1.20;99.90
15617;DHT22;7908;51.688;7.130;2023-01-26T10:28:27;1.20;99.90
15617;DHT22;7908;51.688;7.130;2023-01-26T10:30:57;1.20;99.90
15617;DHT22;7908;51.688;7.130;2023-01-26T10:33:30;1.30;99.90
15617;DHT22;7908;51.688;7.130;2023-01-26T10:36:01;1.30;99.90
15617;DHT22;7908;51.688;7.130;2023-01-26T10:38:44;1.30;99.90
15617;DHT22;7908;51.688;7.130;2023-01-26T10:41:25;1.30;99.90
15617;DHT22;7908;51.688;7.130;2023-01-26T10:43:55;1.30;99.90
15617;DHT22;7908;51.688;7.130;2023-01-26T10:46:30;1.20;99.90
15617;DHT22;7908;51.688;7.130;2023-01-26T10:49:01;1.30;99.90
15617;DHT22;7908;51.688;7.130;2023-01-26T10:51:32;1.30;99.90
15617;DHT22;7908;51.688;7.130;2023-01-26T10:54:20;1.30;99.90
15617;DHT22;7908;51.688;7.130;2023-01-26T10:56:51;1.30;99.90
15617;DHT22;7908;51.688;7.130;2023-01-26T10:59:25;1.20;99.90
15617;DHT22;7908;51.688;7.130;2023-01-26T11:01:58;1.20;99.90
15617;DHT22;7908;51.688;7.130;2023-01-26T11:04:27;1.20;99.90
15617;DHT22;7908;51.688;7.130;2023-01-26T11:07:19;1.30;99.90
15617;DHT22;7908;51.688;7.130;2023-01-26T11:09:53;1.30;99.90
15617;DHT22;7908;51.688;7.130;2023-01-26T11:12:24;1.30;99.90
15617;DHT22;7908;51.688;7.130;2023-01-26T11:15:01;1.30;99.90
15617;DHT22;7908;51.688;7.130;2023-01-26T11:17:35;1.40;99.90
15617;DHT22;7908;51.688;7.130;2023-01-26T11:20:25;1.40;99.90
15617;DHT22;7908;51.688;7.130;2023-01-26T11:23:03;1.50;99.90
15617;DHT22;7908;51.688;7.130;2023-01-26T11:25:38;1.50;99.90
15617;DHT22;7908;51.688;7.130;2023-01-26T11:28:25;1.50;99.90
15617;DHT22;7908;51.688;7.130;2023-01-26T11:31:07;1.60;99.90
15617;DHT22;7908;51.688;7.130;2023-01-26T11:33:48;1.60;99.90
15617;DHT22;7908;51.688;7.130;2023-01-26T11:36:26;1.60;99.90
15617;DHT22;7908;51.688;7.130;2023-01-26T11:39:02;1.60;99.90
15617;DHT22;7908;51.688;7.130;2023-01-26T11:41:44;1.60;99.90
15617;DHT22;7908;51.688;7.130;2023-01-26T11:44:27;1.70;99.90
15617;DHT22;7908;51.688;7.130;2023-01-26T11:47:12;1.70;99.90
15617;DHT22;7908;51.688;7.130;2023-01-26T11:50:00;1.80;99.90
15617;DHT22;7908;51.688;7.130;2023-01-26T11:52:39;1.80;99.90
15617;DHT22;7908;51.688;7.130;2023-01-26T11:55:24;1.80;99.90
15617;DHT22;7908;51.688;7.130;2023-01-26T11:58:10;1.80;99.90
15617;DHT22;7908;51.688;7.130;2023-01-26T12:00:42;1.80;99.90
15617;DHT22;7908;51.688;7.130;2023-01-26T12:03:18;1.80;99.90
15617;DHT22;7908;51.688;7.130;2023-01-26T12:05:51;1.80;99.90
15617;DHT22;7908;51.688;7.130;2023-01-26T12:08:24;1.80;99.90
15617;DHT22;7908;51.688;7.130;2023-01-26T12:11:01;1.80;99.90
15617;DHT22;7908;51.688;7.130;2023-01-26T12:14:14;1.80;99.90
15617;DHT22;7908;51.688;7.130;2023-01-26T12:16:59;1.90;99.90
15617;DHT22;7908;51.688;7.130;2023-01-26T12:19:49;2.00;99.90
15617;DHT22;7908;51.688;7.130;2023-01-26T12:22:23;2.00;99.90
15617;DHT22;7908;51.688;7.130;2023-01-26T12:25:01;2.00;99.90
15617;DHT22;7908;51.688;7.130;2023-01-26T12:27:50;2.00;99.90
15617;DHT22;7908;51.688;7.130;2023-01-26T12:30:32;2.10;99.90
15617;DHT22;7908;51.688;7.130;2023-01-26T12:33:02;2.10;99.90
15617;DHT22;7908;51.688;7.130;2023-01-26T12:38:39;2.10;99.90
15617;DHT22;7908;51.688;7.130;2023-01-26T12:41:14;2.10;99.90
15617;DHT22;7908;51.688;7.130;2023-01-26T12:43:55;2.10;99.90
15617;DHT22;7908;51.688;7.130;2023-01-26T12:46:33;2.20;99.90
15617;DHT22;7908;51.688;7.130;2023-01-26T12:49:05;2.20;99.90
15617;DHT22;7908;51.688;7.130;2023-01-26T12:51:42;2.10;99.90
15617;DHT22;7908;51.688;7.130;2023-01-26T12:54:17;2.10;99.90
15617;DHT22;7908;51.688;7.130;2023-01-26T12:56:51;2.00;99.90
15617;DHT22;7908;51.688;7.130;2023-01-26T12:59:28;2.00;99.90
15617;DHT22;7908;51.688;7.130;2023-01-26T13:02:26;1.90;99.90
15617;DHT22;7908;51.688;7.130;2023-01-26T13:05:00;1.90;99.90
15617;DHT22;7908;51.688;7.130;2023-01-26T13:07:32;1.90;99.90
15617;DHT22;7908;51.688;7.130;2023-01-26T13:10:23;1.90;99.90
15617;DHT22;7908;51.688;7.130;2023-01-26T13:12:55;2.00;99.90
15617;DHT22;7908;51.688;7.130;2023-01-26T13:15:25;2.00;99.90
15617;DHT22;7908;51.688;7.130;2023-01-26T13:17:58;2.10;99.90
15617;DHT22;7908;51.688;7.130;2023-01-26T13:20:45;2.10;99.90
15617;DHT22;7908;51.688;7.130;2023-01-26T13:29:36;2.20;99.90
15617;DHT22;7908;51.688;7.130;2023-01-26T13:35:24;2.20;99.90
15617;DHT22;7908;51.688;7.130;2023-01-26T13:38:02;2.20;99.90
15617;DHT22;7908;51.688;7.130;2023-01-26T13:40:36;2.20;99.90
15617;DHT22;7908;51.688;7.130;2023-01-26T13:43:10;2.20;99.90
15617;DHT22;7908;51.688;7.130;2023-01-26T13:46:09;2.20;99.90
15617;DHT22;7908;51.688;7.130;2023-01-26T13:48:43;2.20;99.90
15617;DHT22;7908;51.688;7.130;2023-01-26T13:51:22;2.20;99.90
15617;DHT22;7908;51.688;7.130;2023-01-26T13:54:00;2.20;99.90
15617;DHT22;7908;51.688;7.130;2023-01-26T13:56:31;2.20;99.90
15617;DHT22;7908;51.688;7.130;2023-01-26T13:59:06;2.30;99.90
15617;DHT22;7908;51.688;7.130;2023-01-26T14:01:43;2.40;99.90
15617;DHT22;7908;51.688;7.130;2023-01-26T14:04:15;2.50;99.90
15617;DHT22;7908;51.688;7.130;2023-01-26T14:06:51;2.50;99.90
15617;DHT22;7908;51.688;7.130;2023-01-26T14:09:20;2.60;99.90
15617;DHT22;7908;51.688;7.130;2023-01-26T14:11:57;2.70;99.90
15617;DHT22;7908;51.688;7.130;2023-01-26T14:14:30;2.80;99.90
15617;DHT22;7908;51.688;7.130;2023-01-26T14:17:00;2.90;99.90
15617;DHT22;7908;51.688;7.130;2023-01-26T14:19:38;3.00;99.90
15617;DHT22;7908;51.688;7.130;2023-01-26T14:22:11;3.10;99.90
15617;DHT22;7908;51.688;7.130;2023-01-26T14:24:41;3.10;99.90
15617;DHT22;7908;51.688;7.130;2023-01-26T14:27:28;3.20;99.90
15617;DHT22;7908;51.688;7.130;2023-01-26T14:29:58;3.20;99.90
15617;DHT22;7908;51.688;7.130;2023-01-26T14:32:29;3.20;99.90
15617;DHT22;7908;51.688;7.130;2023-01-26T14:34:59;3.20;99.90
15617;DHT22;7908;51.688;7.130;2023-01-26T14:37:29;3.20;99.90
15617;DHT22;7908;51.688;7.130;2023-01-26T14:40:19;3.20;99.90
15617;DHT22;7908;51.688;7.130;2023-01-26T14:42:50;3.20;99.90
15617;DHT22;7908;51.688;7.130;2023-01-26T14:45:25;3.20;99.90
15617;DHT22;7908;51.688;7.130;2023-01-26T14:47:57;3.20;99.90
15617;DHT22;7908;51.688;7.130;2023-01-26T14:50:27;3.30;99.90
15617;DHT22;7908;51.688;7.130;2023-01-26T14:53:00;3.30;99.90
15617;DHT22;7908;51.688;7.130;2023-01-26T14:55:33;3.30;99.90
15617;DHT22;7908;51.688;7.130;2023-01-26T14:58:13;3.40;99.90
15617;DHT22;7908;51.688;7.130;2023-01-26T15:00:46;3.40;99.90
15617;DHT22;7908;51.688;7.130;2023-01-26T15:03:26;3.40;99.90
15617;DHT22;7908;51.688;7.130;2023-01-26T15:06:16;3.50;99.90
15617;DHT22;7908;51.688;7.130;2023-01-26T15:08:56;3.50;99.90
15617;DHT22;7908;51.688;7.130;2023-01-26T15:11:30;3.50;99.90
15617;DHT22;7908;51.688;7.130;2023-01-26T15:14:35;3.50;99.90
15617;DHT22;7908;51.688;7.130;2023-01-26T15:17:05;3.50;99.90
15617;DHT22;7908;51.688;7.130;2023-01-26T15:19:40;3.50;99.90
15617;DHT22;7908;51.688;7.130;2023-01-26T15:22:19;3.50;99.90
15617;DHT22;7908;51.688;7.130;2023-01-26T15:25:01;3.50;99.90
15617;DHT22;7908;51.688;7.130;2023-01-26T15:27:32;3.50;99.90
15617;DHT22;7908;51.688;7.130;2023-01-26T15:30:03;3.40;99.90
15617;DHT22;7908;51.688;7.130;2023-01-26T15:32:38;3.40;99.90
15617;DHT22;7908;51.688;7.130;2023-01-26T15:35:19;3.40;99.90
15617;DHT22;7908;51.688;7.130;2023-01-26T15:37:57;3.40;99.90
15617;DHT22;7908;51.688;7.130;2023-01-26T15:40:27;3.40;99.90
15617;DHT22;7908;51.688;7.130;2023-01-26T15:43:20;3.40;99.90
15617;DHT22;7908;51.688;7.130;2023-01-26T15:45:51;3.40;99.90
15617;DHT22;7908;51.688;7.130;2023-01-26T15:48:21;3.50;99.90
15617;DHT22;7908;51.688;7.130;2023-01-26T15:50:50;3.50;99.90
15617;DHT22;7908;51.688;7.130;2023-01-26T15:53:20;3.40;99.90
15617;DHT22;7908;51.688;7.130;2023-01-26T15:55:51;3.50;99.90
15617;DHT22;7908;51.688;7.130;2023-01-26T15:58:23;3.50;99.90
15617;DHT22;7908;51.688;7.130;2023-01-26T16:00:52;3.50;99.90
15617;DHT22;7908;51.688;7.130;2023-01-26T16:03:21;3.70;99.90
15617;DHT22;7908;51.688;7.130;2023-01-26T16:05:50;3.50;99.90
15617;DHT22;7908;51.688;7.130;2023-01-26T16:08:19;3.50;99.90
15617;DHT22;7908;51.688;7.130;2023-01-26T16:10:53;3.50;99.90
15617;DHT22;7908;51.688;7.130;2023-01-26T16:13:23;3.40;99.90
15617;DHT22;7908;51.688;7.130;2023-01-26T16:15:52;3.40;99.90
15617;DHT22;7908;51.688;7.130;2023-01-26T16:18:21;3.40;99.90
15617;DHT22;7908;51.688;7.130;2023-01-26T16:20:50;3.40;99.90
15617;DHT22;7908;51.688;7.130;2023-01-26T16:23:24;3.40;99.90
15617;DHT22;7908;51.688;7.130;2023-01-26T16:25:56;3.50;99.90
15617;DHT22;7908;51.688;7.130;2023-01-26T16:28:28;3.50;99.90
15617;DHT22;7908;51.688;7.130;2023-01-26T16:30:58;3.50;99.90
15617;DHT22;7908;51.688;7.130;2023-01-26T16:33:28;3.40;99.90
15617;DHT22;7908;51.688;7.130;2023-01-26T16:35:57;3.30;99.90
15617;DHT22;7908;51.688;7.130;2023-01-26T16:38:29;3.30;99.90
15617;DHT22;7908;51.688;7.130;2023-01-26T16:40:59;3.30;99.90
15617;DHT22;7908;51.688;7.130;2023-01-26T16:43:31;3.30;99.90
15617;DHT22;7908;51.688;7.130;2023-01-26T16:46:01;3.30;99.90